createdAt,value
2023-02-16T00:02:14.429Z,50.70
2023-02-16T00:04:42.921Z,51.42
2023-02-16T00:07:11.420Z,51.75
2023-02-16T00:09:41.166Z,42.05
2023-02-16T00:12:39.624Z,51.50
2023-02-16T00:15:19.130Z,50.42
2023-02-16T00:17:47.478Z,54.20
2023-02-16T00:20:17.916Z,52.78
2023-02-16T00:22:46.513Z,51.65
2023-02-16T00:25:16.225Z,54.30
2023-02-16T00:27:44.843Z,49.67
2023-02-16T00:30:18.407Z,52.85
2023-02-16T00:32:50.651Z,52.80
2023-02-16T00:35:21.502Z,52.67
2023-02-16T00:37:50.480Z,61.35
2023-02-16T00:40:20.230Z,68.05
2023-02-16T00:42:49.137Z,51.20
2023-02-16T00:45:20.625Z,51.13
2023-02-16T00:47:52.343Z,70.00
2023-02-16T00:50:25.385Z,57.47
2023-02-16T00:52:54.536Z,54.90
2023-02-16T00:55:27.450Z,51.45
2023-02-16T00:57:59.855Z,46.40
2023-02-16T01:00:31.166Z,42.85
2023-02-16T01:03:02.545Z,45.40
2023-02-16T01:05:31.640Z,57.35
2023-02-16T01:08:19.210Z,40.42
2023-02-16T01:11:10.025Z,48.20
2023-02-16T01:13:44.624Z,37.40
2023-02-16T01:18:48.530Z,33.93
2023-02-16T01:21:17.078Z,46.58
2023-02-16T01:23:45.476Z,51.50
2023-02-16T01:26:19.576Z,44.70
2023-02-16T01:28:49.074Z,52.78
2023-02-16T01:31:18.684Z,62.75
2023-02-16T01:33:47.227Z,60.15
2023-02-16T01:36:25.112Z,55.28
2023-02-16T01:38:53.429Z,61.63
2023-02-16T01:41:41.274Z,58.95
2023-02-16T01:44:17.199Z,59.65
2023-02-16T01:46:51.932Z,50.95
2023-02-16T01:49:22.004Z,55.42
2023-02-16T01:51:57.606Z,62.70
2023-02-16T01:54:44.038Z,53.58
2023-02-16T01:57:28.872Z,64.80
2023-02-16T02:02:47.270Z,48.60
2023-02-16T02:05:37.414Z,53.70
2023-02-16T02:08:23.401Z,48.10
2023-02-16T02:11:04.166Z,44.03
2023-02-16T02:13:42.678Z,55.17
2023-02-16T02:16:12.857Z,53.20
2023-02-16T02:18:41.392Z,58.30
2023-02-16T02:21:55.142Z,54.65
2023-02-16T02:25:14.756Z,60.83
2023-02-16T02:27:50.337Z,68.78
2023-02-16T02:30:38.598Z,61.78
2023-02-16T02:33:27.691Z,46.05
2023-02-16T02:36:21.169Z,50.80
2023-02-16T02:39:04.163Z,53.40
2023-02-16T02:42:00.286Z,40.38
2023-02-16T02:44:34.966Z,47.83
2023-02-16T02:47:03.257Z,43.63
2023-02-16T02:49:31.772Z,48.85
2023-02-16T02:52:00.808Z,49.17
2023-02-16T02:54:49.808Z,46.88
2023-02-16T02:57:42.110Z,46.05
2023-02-16T03:00:34.605Z,50.58
2023-02-16T03:03:08.135Z,42.25
2023-02-16T03:05:42.419Z,34.63
2023-02-16T03:08:15.234Z,29.50
2023-02-16T03:11:14.288Z,26.75
2023-02-16T03:13:47.215Z,30.33
2023-02-16T03:16:22.666Z,31.58
2023-02-16T03:19:08.639Z,26.80
2023-02-16T03:21:54.668Z,31.17
2023-02-16T03:24:45.873Z,33.15
2023-02-16T03:27:34.521Z,25.35
2023-02-16T03:30:05.909Z,30.17
2023-02-16T03:32:35.962Z,25.13
2023-02-16T03:35:04.806Z,37.53
2023-02-16T03:37:33.539Z,31.40
2023-02-16T03:40:18.762Z,34.90
2023-02-16T03:42:51.149Z,30.83
2023-02-16T03:45:20.107Z,25.92
2023-02-16T03:47:49.976Z,33.47
2023-02-16T03:50:18.635Z,48.63
2023-02-16T03:52:47.229Z,42.53
2023-02-16T03:55:16.127Z,47.17
2023-02-16T03:57:44.638Z,38.17
2023-02-16T04:00:14.271Z,39.00
2023-02-16T04:02:42.705Z,36.20
2023-02-16T04:05:12.317Z,34.20
2023-02-16T04:07:40.797Z,51.45
2023-02-16T04:10:09.275Z,37.20
2023-02-16T04:12:36.847Z,40.97
2023-02-16T04:15:07.174Z,53.30
2023-02-16T04:17:35.469Z,46.20
2023-02-16T04:20:04.512Z,46.70
2023-02-16T04:22:34.222Z,45.03
2023-02-16T04:25:03.329Z,50.80
2023-02-16T04:27:31.821Z,45.83
2023-02-16T04:30:00.365Z,50.05
2023-02-16T04:32:28.795Z,54.85
2023-02-16T04:34:57.005Z,47.45
2023-02-16T04:37:25.648Z,61.45
2023-02-16T04:39:55.211Z,58.40
2023-02-16T04:42:23.807Z,59.65
2023-02-16T04:44:52.422Z,57.17
2023-02-16T04:47:21.809Z,61.53
2023-02-16T04:49:50.478Z,51.60
2023-02-16T04:52:19.015Z,57.63
2023-02-16T04:54:47.338Z,43.38
2023-02-16T04:57:17.440Z,58.70
2023-02-16T04:59:46.003Z,38.13
2023-02-16T05:02:14.524Z,35.80
2023-02-16T05:04:43.289Z,37.53
2023-02-16T05:07:11.628Z,42.53
2023-02-16T05:09:39.844Z,34.42
2023-02-16T05:12:26.160Z,58.97
2023-02-16T05:14:55.856Z,48.42
2023-02-16T05:17:26.585Z,49.38
2023-02-16T05:19:57.672Z,42.30
2023-02-16T05:22:28.548Z,41.22
2023-02-16T05:24:57.062Z,46.78
2023-02-16T05:27:29.085Z,45.53
2023-02-16T05:29:59.445Z,36.60
2023-02-16T05:32:28.089Z,56.00
2023-02-16T05:34:56.622Z,39.53
2023-02-16T05:37:25.204Z,32.13
2023-02-16T05:39:53.784Z,42.45
2023-02-16T05:42:22.348Z,27.25
2023-02-16T05:44:50.907Z,40.00
2023-02-16T05:47:20.810Z,51.08
2023-02-16T05:49:49.041Z,46.20
2023-02-16T05:52:17.587Z,54.75
2023-02-16T05:54:46.082Z,45.22
2023-02-16T05:57:14.670Z,33.25
2023-02-16T05:59:43.309Z,30.00
2023-02-16T06:02:11.846Z,30.13
2023-02-16T06:04:41.423Z,37.03
2023-02-16T06:07:09.994Z,35.22
2023-02-16T06:09:38.478Z,43.83
2023-02-16T06:12:07.770Z,37.97
2023-02-16T06:14:36.321Z,43.45
2023-02-16T06:17:04.866Z,33.83
2023-02-16T06:19:33.537Z,40.65
2023-02-16T06:22:03.122Z,34.70
2023-02-16T06:24:31.647Z,40.97
2023-02-16T06:27:00.174Z,36.65
2023-02-16T06:29:28.703Z,44.85
2023-02-16T06:31:57.423Z,38.13
2023-02-16T06:34:26.433Z,42.72
2023-02-16T06:36:55.016Z,36.85
2023-02-16T06:39:24.887Z,35.33
2023-02-16T06:41:53.439Z,35.22
2023-02-16T06:44:22.088Z,31.98
2023-02-16T06:46:50.658Z,37.40
2023-02-16T06:49:21.589Z,40.72
2023-02-16T06:51:51.172Z,44.17
2023-02-16T06:54:20.018Z,31.90
2023-02-16T06:56:49.591Z,40.05
2023-02-16T06:59:18.151Z,42.63
2023-02-16T07:01:46.647Z,38.78
2023-02-16T07:04:15.192Z,34.95
2023-02-16T07:06:43.727Z,34.92
2023-02-16T07:09:12.947Z,43.85
2023-02-16T07:11:41.718Z,37.67
2023-02-16T07:14:11.798Z,44.75
2023-02-16T07:16:40.452Z,47.75
2023-02-16T07:19:08.743Z,44.47
2023-02-16T07:21:37.333Z,36.30
2023-02-16T07:24:06.328Z,41.03
2023-02-16T07:26:35.114Z,39.10
2023-02-16T07:29:04.086Z,47.67
2023-02-16T07:31:33.723Z,57.67
2023-02-16T07:34:02.940Z,40.08
2023-02-16T07:36:31.481Z,46.40
2023-02-16T07:38:59.676Z,48.58
2023-02-16T07:41:28.194Z,48.50
2023-02-16T07:43:56.382Z,50.67
2023-02-16T07:46:24.932Z,42.47
2023-02-16T07:48:54.493Z,54.03
2023-02-16T07:51:23.996Z,55.08
2023-02-16T07:53:52.858Z,37.35
2023-02-16T07:56:23.022Z,53.35
2023-02-16T07:58:53.610Z,35.72
2023-02-16T08:01:22.447Z,39.05
2023-02-16T08:03:51.158Z,36.90
2023-02-16T08:06:21.306Z,52.78
2023-02-16T08:08:49.934Z,60.15
2023-02-16T08:11:20.548Z,63.40
2023-02-16T08:13:49.652Z,52.92
2023-02-16T08:16:21.456Z,50.70
2023-02-16T08:18:50.764Z,43.05
2023-02-16T08:21:23.471Z,55.65
2023-02-16T08:23:55.929Z,38.97
2023-02-16T08:26:27.462Z,45.63
2023-02-16T08:28:58.815Z,44.05
2023-02-16T08:31:30.148Z,46.55
2023-02-16T08:34:01.929Z,52.15
2023-02-16T08:36:34.393Z,47.40
2023-02-16T08:39:04.063Z,55.15
2023-02-16T08:41:34.428Z,60.83
2023-02-16T08:44:03.252Z,58.80
2023-02-16T08:46:33.146Z,67.47
2023-02-16T08:49:02.205Z,66.68
2023-02-16T08:51:35.683Z,59.88
2023-02-16T08:54:06.109Z,58.20
2023-02-16T08:56:34.462Z,51.75
2023-02-16T08:59:03.495Z,57.92
2023-02-16T09:01:32.333Z,54.28
2023-02-16T09:04:00.910Z,59.88
2023-02-16T09:06:29.242Z,68.82
2023-02-16T09:08:59.307Z,72.72
2023-02-16T09:11:28.919Z,67.55
2023-02-16T09:13:57.418Z,57.42
2023-02-16T09:16:28.894Z,69.70
2023-02-16T09:18:58.266Z,74.63
2023-02-16T09:21:27.362Z,65.75
2023-02-16T09:23:58.471Z,61.03
2023-02-16T09:26:29.157Z,68.22
2023-02-16T09:28:59.095Z,63.13
2023-02-16T09:31:31.292Z,55.40
2023-02-16T09:34:02.956Z,56.85
2023-02-16T09:36:32.181Z,62.53
2023-02-16T09:39:02.288Z,62.83
2023-02-16T09:41:42.717Z,63.05
2023-02-16T09:44:27.114Z,73.57
2023-02-16T09:46:59.247Z,68.32
2023-02-16T09:49:33.535Z,70.60
2023-02-16T09:52:10.060Z,62.35
2023-02-16T09:54:47.894Z,44.42
2023-02-16T09:57:23.885Z,54.45
2023-02-16T10:00:00.856Z,66.63
2023-02-16T10:02:42.057Z,67.25
2023-02-16T10:05:33.697Z,68.63
2023-02-16T10:08:09.348Z,64.93
2023-02-16T10:10:50.800Z,77.68
2023-02-16T10:13:27.128Z,83.93
2023-02-16T10:15:58.326Z,63.75
2023-02-16T10:18:33.372Z,68.05
2023-02-16T10:21:07.882Z,71.47
2023-02-16T10:26:24.488Z,75.57
2023-02-16T10:28:55.406Z,62.97
2023-02-16T10:31:34.790Z,71.95
2023-02-16T10:34:23.170Z,72.72
2023-02-16T10:37:11.560Z,94.35
2023-02-16T10:39:47.342Z,69.18
2023-02-16T10:42:25.536Z,90.40
2023-02-16T10:45:03.645Z,76.70
2023-02-16T10:47:36.673Z,84.70
2023-02-16T10:50:07.079Z,93.18
2023-02-16T10:52:41.602Z,94.55
2023-02-16T10:57:41.356Z,74.78
2023-02-16T11:00:17.574Z,72.78
2023-02-16T11:02:49.232Z,74.47
2023-02-16T11:05:38.025Z,82.75
2023-02-16T11:08:10.734Z,68.88
2023-02-16T11:10:46.079Z,69.80
2023-02-16T11:13:34.070Z,78.53
2023-02-16T11:16:09.221Z,59.72
2023-02-16T11:18:41.831Z,67.20
2023-02-16T11:21:12.173Z,67.28
2023-02-16T11:23:42.039Z,73.97
2023-02-16T11:26:25.404Z,61.42
2023-02-16T11:29:07.350Z,62.22
2023-02-16T11:31:40.708Z,51.83
2023-02-16T11:34:16.846Z,58.55
2023-02-16T11:36:48.150Z,64.65
2023-02-16T11:39:21.486Z,44.80
2023-02-16T11:41:53.106Z,53.05
2023-02-16T11:44:30.151Z,45.83
2023-02-16T11:47:00.639Z,53.75
2023-02-16T11:49:33.777Z,48.10
2023-02-16T11:52:18.439Z,45.83
2023-02-16T11:54:50.484Z,46.72
2023-02-16T11:57:26.924Z,46.90
2023-02-16T11:59:58.144Z,47.25
2023-02-16T12:03:08.401Z,49.00
2023-02-16T12:05:50.415Z,51.83
2023-02-16T12:08:35.222Z,56.63
2023-02-16T12:11:28.879Z,51.17
2023-02-16T12:14:42.603Z,53.50
2023-02-16T12:17:29.237Z,48.17
2023-02-16T12:20:06.123Z,51.10
2023-02-16T12:22:45.619Z,62.38
2023-02-16T12:25:35.412Z,54.33
2023-02-16T12:28:14.937Z,48.35
2023-02-16T12:31:01.334Z,49.90
2023-02-16T12:33:43.558Z,59.25
2023-02-16T12:36:52.326Z,53.38
2023-02-16T12:39:30.734Z,55.30
2023-02-16T12:42:18.624Z,49.40
2023-02-16T12:44:51.432Z,50.67
2023-02-16T12:47:26.898Z,71.82
2023-02-16T12:50:01.014Z,53.63
2023-02-16T12:52:39.014Z,56.30
2023-02-16T12:55:22.929Z,48.75
2023-02-16T12:58:04.280Z,55.22
2023-02-16T13:00:46.068Z,52.50
2023-02-16T13:03:33.684Z,51.42
2023-02-16T13:06:17.409Z,58.00
2023-02-16T13:08:52.987Z,63.72
2023-02-16T13:11:28.336Z,52.92
2023-02-16T13:14:03.163Z,57.60
2023-02-16T13:19:14.293Z,42.25
2023-02-16T13:22:29.496Z,57.20
2023-02-16T13:25:32.129Z,46.88
2023-02-16T13:28:16.542Z,56.97
2023-02-16T13:30:59.567Z,50.80
2023-02-16T13:33:53.017Z,60.00
2023-02-16T13:36:46.146Z,53.65
2023-02-16T13:39:51.784Z,56.00
2023-02-16T13:42:45.881Z,53.33
2023-02-16T13:45:19.383Z,52.70
2023-02-16T13:47:48.472Z,50.17
2023-02-16T13:50:33.034Z,52.78
2023-02-16T13:53:19.530Z,57.30
2023-02-16T13:55:50.698Z,58.25
2023-02-16T13:58:32.393Z,57.67
2023-02-16T14:01:21.004Z,56.03
2023-02-16T14:03:49.266Z,55.72
2023-02-16T14:06:36.342Z,55.13
2023-02-16T14:09:41.084Z,50.83
2023-02-16T14:12:22.307Z,52.13
2023-02-16T14:15:05.265Z,62.45
2023-02-16T14:17:35.776Z,97.55
2023-02-16T14:20:08.900Z,56.03
2023-02-16T14:22:48.553Z,54.20
2023-02-16T14:25:37.536Z,50.13
2023-02-16T14:34:59.725Z,48.78
2023-02-16T14:37:40.456Z,50.03
2023-02-16T14:40:24.381Z,54.90
2023-02-16T14:43:02.494Z,56.13
2023-02-16T14:50:09.543Z,47.70
2023-02-16T14:53:26.292Z,53.90
2023-02-16T14:56:35.888Z,44.55
2023-02-16T14:59:12.810Z,55.17
2023-02-16T15:01:43.026Z,60.45
2023-02-16T15:04:12.447Z,55.35
2023-02-16T15:06:47.235Z,63.33
2023-02-16T15:09:22.798Z,56.90
2023-02-16T15:12:11.771Z,63.40
2023-02-16T15:14:45.195Z,60.70
2023-02-16T15:17:32.874Z,61.25
2023-02-16T15:20:10.553Z,52.35
2023-02-16T15:22:44.550Z,58.60
2023-02-16T15:25:27.907Z,61.83
2023-02-16T15:28:00.267Z,66.50
2023-02-16T15:30:31.202Z,55.05
2023-02-16T15:33:03.030Z,65.53
2023-02-16T15:35:37.639Z,59.15
2023-02-16T15:38:21.276Z,52.85
2023-02-16T15:40:53.626Z,55.70
2023-02-16T15:43:31.898Z,55.63
2023-02-16T15:46:03.732Z,54.75
2023-02-16T15:48:34.575Z,63.53
2023-02-16T15:51:11.595Z,54.47
2023-02-16T15:53:51.881Z,62.90
2023-02-16T15:56:38.280Z,54.90
2023-02-16T15:59:32.016Z,56.17
2023-02-16T16:02:05.129Z,48.72
2023-02-16T16:04:38.521Z,56.92
2023-02-16T16:07:14.328Z,57.47
2023-02-16T16:09:45.718Z,55.30
2023-02-16T16:12:18.155Z,55.63
2023-02-16T16:14:53.045Z,60.80
2023-02-16T16:17:28.025Z,53.72
2023-02-16T16:19:57.336Z,55.95
2023-02-16T16:22:39.866Z,54.67
2023-02-16T16:25:37.821Z,56.67
2023-02-16T16:28:09.809Z,56.83
2023-02-16T16:30:43.808Z,61.90
2023-02-16T16:33:15.091Z,58.38
2023-02-16T16:35:46.391Z,57.70
2023-02-16T16:38:27.131Z,60.28
2023-02-16T16:40:59.686Z,45.53
2023-02-16T16:43:30.974Z,56.47
2023-02-16T16:46:14.633Z,60.53
2023-02-16T16:48:47.362Z,58.35
2023-02-16T16:51:20.951Z,53.83
2023-02-16T16:53:57.830Z,61.22
2023-02-16T16:56:28.193Z,66.78
2023-02-16T16:58:58.729Z,56.72
2023-02-16T17:01:29.494Z,56.05
2023-02-16T17:03:58.233Z,54.97
2023-02-16T17:06:27.545Z,60.80
2023-02-16T17:08:56.178Z,60.20
2023-02-16T17:11:31.666Z,49.20
2023-02-16T17:14:09.457Z,50.80
2023-02-16T17:16:41.962Z,58.67
2023-02-16T17:19:13.038Z,60.08
2023-02-16T17:21:41.619Z,54.95
2023-02-16T17:24:10.308Z,80.00
2023-02-16T17:26:40.464Z,58.92
2023-02-16T17:29:09.297Z,61.30
2023-02-16T17:31:37.842Z,58.38
2023-02-16T17:34:06.479Z,63.47
2023-02-16T17:36:35.940Z,58.63
2023-02-16T17:39:04.505Z,62.15
2023-02-16T17:41:33.055Z,59.67
2023-02-16T17:44:04.001Z,63.15
2023-02-16T17:46:33.432Z,66.53
2023-02-16T17:49:01.659Z,63.38
2023-02-16T17:51:32.157Z,66.13
2023-02-16T17:54:00.712Z,59.33
2023-02-16T17:56:29.272Z,58.03
2023-02-16T17:58:57.838Z,50.85
2023-02-16T18:01:27.460Z,53.22
2023-02-16T18:03:55.967Z,66.55
2023-02-16T18:06:27.545Z,62.33
2023-02-16T18:08:57.590Z,64.00
2023-02-16T18:11:26.325Z,61.63
2023-02-16T18:13:54.872Z,85.95
2023-02-16T18:16:28.611Z,90.85
2023-02-16T18:18:57.388Z,71.70
2023-02-16T18:21:26.032Z,62.42
2023-02-16T18:23:54.683Z,75.97
2023-02-16T18:26:23.718Z,78.50
2023-02-16T18:28:52.298Z,82.43
2023-02-16T18:31:21.450Z,69.30
2023-02-16T18:33:51.426Z,65.47
2023-02-16T18:36:19.988Z,65.05
2023-02-16T18:38:48.644Z,67.57
2023-02-16T18:41:17.164Z,65.75
2023-02-16T18:43:45.367Z,61.40
2023-02-16T18:46:14.179Z,70.85
2023-02-16T18:48:42.683Z,70.68
2023-02-16T18:51:13.573Z,75.93
2023-02-16T18:53:41.818Z,72.20
2023-02-16T18:56:12.763Z,69.25
2023-02-16T18:58:41.694Z,71.07
2023-02-16T19:01:15.483Z,81.43
2023-02-16T19:03:44.172Z,73.00
2023-02-16T19:06:13.723Z,68.72
2023-02-16T19:08:41.997Z,67.65
2023-02-16T19:11:10.266Z,70.10
2023-02-16T19:13:38.568Z,61.33
2023-02-16T19:16:07.980Z,68.47
2023-02-16T19:18:36.795Z,67.35
2023-02-16T19:21:07.658Z,71.35
2023-02-16T19:23:37.882Z,62.63
2023-02-16T19:26:08.160Z,66.28
2023-02-16T19:28:36.441Z,63.22
2023-02-16T19:31:07.740Z,60.42
2023-02-16T19:33:36.755Z,58.45
2023-02-16T19:36:08.505Z,60.65
2023-02-16T19:38:38.605Z,52.10
2023-02-16T19:41:12.467Z,54.78
2023-02-16T19:43:41.645Z,49.00
2023-02-16T19:46:10.793Z,51.13
2023-02-16T19:48:40.038Z,66.65
2023-02-16T19:51:10.020Z,50.53
2023-02-16T19:53:40.595Z,53.35
2023-02-16T19:56:12.139Z,46.63
2023-02-16T19:58:40.947Z,54.75
2023-02-16T20:01:11.532Z,44.65
2023-02-16T20:03:40.756Z,45.13
2023-02-16T20:06:17.710Z,50.78
2023-02-16T20:08:48.578Z,49.13
2023-02-16T20:11:22.103Z,45.70
2023-02-16T20:13:50.829Z,47.35
2023-02-16T20:16:20.872Z,43.03
2023-02-16T20:18:51.737Z,46.03
2023-02-16T20:21:23.272Z,40.22
2023-02-16T20:23:56.532Z,37.70
2023-02-16T20:26:27.420Z,33.50
2023-02-16T20:28:56.383Z,33.63
2023-02-16T20:31:27.983Z,31.75
2023-02-16T20:33:56.648Z,32.70
2023-02-16T20:36:25.327Z,26.77
2023-02-16T20:38:55.053Z,32.05
2023-02-16T20:41:23.623Z,34.88
2023-02-16T20:43:52.237Z,33.45
2023-02-16T20:46:23.428Z,37.30
2023-02-16T20:48:52.579Z,29.50
2023-02-16T20:51:21.973Z,38.63
2023-02-16T20:53:50.590Z,32.13
2023-02-16T20:56:22.506Z,30.73
2023-02-16T20:58:53.535Z,32.42
2023-02-16T21:01:24.995Z,29.92
2023-02-16T21:03:55.900Z,25.45
2023-02-16T21:06:25.589Z,22.60
2023-02-16T21:08:54.926Z,28.80
2023-02-16T21:11:25.524Z,25.88
2023-02-16T21:13:54.409Z,28.85
2023-02-16T21:16:23.206Z,25.55
2023-02-16T21:18:52.125Z,27.13
2023-02-16T21:21:20.704Z,22.33
2023-02-16T21:23:51.611Z,27.55
2023-02-16T21:26:21.723Z,26.33
2023-02-16T21:28:52.063Z,25.38
2023-02-16T21:31:24.641Z,27.02
2023-02-16T21:33:53.936Z,23.08
2023-02-16T21:36:25.804Z,21.38
2023-02-16T21:38:54.510Z,22.17
2023-02-16T21:41:25.412Z,21.55
2023-02-16T21:44:00.543Z,18.30
2023-02-16T21:46:30.696Z,26.67
2023-02-16T21:48:58.474Z,21.45
2023-02-16T21:51:32.254Z,24.63
2023-02-16T21:54:01.081Z,26.83
2023-02-16T21:56:33.960Z,21.20
2023-02-16T21:59:05.103Z,18.30
2023-02-16T22:01:37.674Z,21.17
2023-02-16T22:04:07.033Z,21.65
2023-02-16T22:06:39.636Z,29.15
2023-02-16T22:09:11.790Z,17.27
2023-02-16T22:11:40.909Z,17.58
2023-02-16T22:14:10.691Z,17.48
2023-02-16T22:16:39.831Z,17.67
2023-02-16T22:19:11.986Z,20.58
2023-02-16T22:21:43.807Z,28.48
2023-02-16T22:24:13.853Z,20.38
2023-02-16T22:26:42.649Z,16.33
2023-02-16T22:29:13.074Z,26.13
2023-02-16T22:31:46.552Z,21.90
2023-02-16T22:34:22.349Z,17.08
2023-02-16T22:36:50.981Z,14.38
2023-02-16T22:39:20.561Z,19.05
2023-02-16T22:41:51.415Z,18.25
2023-02-16T22:44:21.001Z,18.27
2023-02-16T22:46:49.826Z,28.20
2023-02-16T22:49:18.339Z,20.05
2023-02-16T22:51:46.579Z,17.25
2023-02-16T22:54:16.155Z,16.08
2023-02-16T22:56:44.982Z,14.40
2023-02-16T22:59:13.574Z,14.98
2023-02-16T23:01:43.173Z,21.50
2023-02-16T23:04:16.285Z,17.13
2023-02-16T23:06:46.543Z,16.85
2023-02-16T23:09:18.598Z,15.82
2023-02-16T23:11:52.986Z,17.05
2023-02-16T23:16:54.348Z,12.27
2023-02-16T23:19:25.242Z,12.43
2023-02-16T23:21:54.350Z,15.18
2023-02-16T23:24:24.384Z,13.50
2023-02-16T23:26:53.232Z,11.95
2023-02-16T23:29:23.136Z,12.60
2023-02-16T23:31:53.902Z,12.63
2023-02-16T23:34:22.504Z,15.57
2023-02-16T23:36:50.695Z,14.23
2023-02-16T23:39:19.899Z,9.05
2023-02-16T23:41:48.471Z,9.57
2023-02-16T23:44:16.819Z,10.10
2023-02-16T23:46:45.195Z,11.07
2023-02-16T23:49:14.737Z,9.10
2023-02-16T23:51:42.917Z,14.32
2023-02-16T23:54:11.782Z,9.23
2023-02-16T23:56:41.853Z,13.70
2023-02-16T23:59:10.367Z,16.95
